createdAt,value
2023-01-26T00:00:02.109Z,15.50
2023-01-26T00:01:34.833Z,13.98
2023-01-26T00:03:07.517Z,14.95
2023-01-26T00:04:40.209Z,15.07
2023-01-26T00:06:14.798Z,14.57
2023-01-26T00:07:47.491Z,14.27
2023-01-26T00:09:20.309Z,14.13
2023-01-26T00:10:54.330Z,14.43
2023-01-26T00:12:27.014Z,14.48
2023-01-26T00:14:01.197Z,14.10
2023-01-26T00:15:34.304Z,13.52
2023-01-26T00:17:06.993Z,14.88
2023-01-26T00:18:40.702Z,14.95
2023-01-26T00:20:13.997Z,13.48
2023-01-26T00:21:46.748Z,14.15
2023-01-26T00:23:19.424Z,14.88
2023-01-26T00:24:51.188Z,13.88
2023-01-26T00:26:27.733Z,14.38
2023-01-26T00:28:00.448Z,15.38
2023-01-26T00:29:32.179Z,15.45
2023-01-26T00:31:05.663Z,15.80
2023-01-26T00:32:39.306Z,15.95
2023-01-26T00:34:11.988Z,15.50
2023-01-26T00:35:44.864Z,14.95
2023-01-26T00:37:17.581Z,13.52
2023-01-26T00:38:50.400Z,15.13
2023-01-26T00:40:23.092Z,14.18
2023-01-26T00:42:09.891Z,13.90
2023-01-26T00:43:42.614Z,13.65
2023-01-26T00:45:15.383Z,13.75
2023-01-26T00:46:47.141Z,14.65
2023-01-26T00:48:19.930Z,14.25
2023-01-26T00:49:52.610Z,14.32
2023-01-26T00:51:25.317Z,14.20
2023-01-26T00:52:58.225Z,14.90
2023-01-26T00:54:31.265Z,14.18
2023-01-26T00:56:03.989Z,13.52
2023-01-26T00:57:38.077Z,13.32
2023-01-26T00:59:09.969Z,14.15
2023-01-26T01:00:42.734Z,15.00
2023-01-26T01:02:15.582Z,14.23
2023-01-26T01:03:47.358Z,12.90
2023-01-26T01:05:20.127Z,13.75
2023-01-26T01:06:51.925Z,12.50
2023-01-26T01:08:24.658Z,11.95
2023-01-26T01:09:57.355Z,12.80
2023-01-26T01:11:30.061Z,13.75
2023-01-26T01:13:03.123Z,13.18
2023-01-26T01:14:35.795Z,12.95
2023-01-26T01:16:09.648Z,13.98
2023-01-26T01:17:42.610Z,12.75
2023-01-26T01:19:16.514Z,12.85
2023-01-26T01:20:48.254Z,13.27
2023-01-26T01:22:21.054Z,13.07
2023-01-26T01:23:54.109Z,13.20
2023-01-26T01:25:25.873Z,12.82
2023-01-26T01:26:58.563Z,13.77
2023-01-26T01:28:32.544Z,13.20
2023-01-26T01:30:07.985Z,14.82
2023-01-26T01:31:43.128Z,14.63
2023-01-26T01:33:14.897Z,13.70
2023-01-26T01:34:48.551Z,12.93
2023-01-26T01:36:20.338Z,12.23
2023-01-26T01:37:52.996Z,13.00
2023-01-26T01:39:25.776Z,11.57
2023-01-26T01:40:57.606Z,12.68
2023-01-26T01:42:30.305Z,17.75
2023-01-26T01:44:16.150Z,17.05
2023-01-26T01:45:49.804Z,13.55
2023-01-26T01:47:26.599Z,13.30
2023-01-26T01:49:02.588Z,14.05
2023-01-26T01:50:40.199Z,14.32
2023-01-26T01:52:17.498Z,13.13
2023-01-26T01:53:53.032Z,14.32
2023-01-26T01:55:26.104Z,13.75
2023-01-26T01:57:03.444Z,12.85
2023-01-26T01:58:40.151Z,12.35
2023-01-26T02:00:16.758Z,13.60
2023-01-26T02:01:50.990Z,13.43
2023-01-26T02:03:23.203Z,12.93
2023-01-26T02:05:01.496Z,12.25
2023-01-26T02:06:38.823Z,11.00
2023-01-26T02:08:13.268Z,11.60
2023-01-26T02:10:04.152Z,11.40
2023-01-26T02:11:41.176Z,11.98
2023-01-26T02:13:13.465Z,11.88
2023-01-26T02:14:46.993Z,10.75
2023-01-26T02:16:21.348Z,11.73
2023-01-26T02:17:54.821Z,11.98
2023-01-26T02:19:38.453Z,12.32
2023-01-26T02:21:13.940Z,11.85
2023-01-26T02:22:51.286Z,11.35
2023-01-26T02:24:28.778Z,10.35
2023-01-26T02:26:11.273Z,10.45
2023-01-26T02:27:44.304Z,10.55
2023-01-26T02:29:17.110Z,10.27
2023-01-26T02:30:50.557Z,10.20
2023-01-26T02:32:23.251Z,9.95
2023-01-26T02:33:55.956Z,8.80
2023-01-26T02:35:27.738Z,8.95
2023-01-26T02:37:01.621Z,9.18
2023-01-26T02:38:40.270Z,9.38
2023-01-26T02:40:22.015Z,8.73
2023-01-26T02:42:13.962Z,8.43
2023-01-26T02:43:46.641Z,7.75
2023-01-26T02:45:19.437Z,7.43
2023-01-26T02:46:51.189Z,7.35
2023-01-26T02:48:38.138Z,7.57
2023-01-26T02:50:11.951Z,7.57
2023-01-26T02:51:43.871Z,7.45
2023-01-26T02:53:16.554Z,7.75
2023-01-26T02:55:06.728Z,7.57
2023-01-26T02:56:40.827Z,7.30
2023-01-26T02:58:14.842Z,7.10
2023-01-26T02:59:46.603Z,6.45
2023-01-26T03:01:19.276Z,6.95
2023-01-26T03:02:54.401Z,6.90
2023-01-26T03:04:27.250Z,6.32
2023-01-26T03:05:59.954Z,6.78
2023-01-26T03:07:32.972Z,6.45
2023-01-26T03:09:05.643Z,6.38
2023-01-26T03:10:38.452Z,6.57
2023-01-26T03:12:11.351Z,6.72
2023-01-26T03:13:45.402Z,6.00
2023-01-26T03:15:32.201Z,5.85
2023-01-26T03:17:04.891Z,6.47
2023-01-26T03:18:55.622Z,6.00
2023-01-26T03:20:46.186Z,5.90
2023-01-26T03:22:36.659Z,5.55
2023-01-26T03:24:30.554Z,5.22
2023-01-26T03:26:20.758Z,5.65
2023-01-26T03:27:53.434Z,4.65
2023-01-26T03:29:28.226Z,5.53
2023-01-26T03:31:00.975Z,4.45
2023-01-26T03:32:32.861Z,4.50
2023-01-26T03:34:05.736Z,4.72
2023-01-26T03:35:38.657Z,4.20
2023-01-26T03:37:11.723Z,4.43
2023-01-26T03:38:44.418Z,4.63
2023-01-26T03:40:34.642Z,4.53
2023-01-26T03:42:25.034Z,4.55
2023-01-26T03:44:15.417Z,4.93
2023-01-26T03:46:07.220Z,4.95
2023-01-26T03:47:57.512Z,5.07
2023-01-26T03:49:47.920Z,5.32
2023-01-26T03:51:38.253Z,5.07
2023-01-26T03:53:32.641Z,4.82
2023-01-26T03:55:23.832Z,4.90
2023-01-26T03:56:56.521Z,5.22
2023-01-26T03:58:30.145Z,5.03
2023-01-26T04:00:03.049Z,5.00
2023-01-26T04:01:39.190Z,5.60
2023-01-26T04:03:29.817Z,5.65
2023-01-26T04:05:20.264Z,5.28
2023-01-26T04:07:10.892Z,5.18
2023-01-26T04:08:43.612Z,5.00
2023-01-26T04:10:17.032Z,4.43
2023-01-26T04:11:50.057Z,4.60
2023-01-26T04:13:42.513Z,4.18
2023-01-26T04:15:32.949Z,4.22
2023-01-26T04:17:24.493Z,4.55
2023-01-26T04:19:14.856Z,4.50
2023-01-26T04:21:05.144Z,4.32
2023-01-26T04:22:43.563Z,4.03
2023-01-26T04:24:17.263Z,4.30
2023-01-26T04:25:50.320Z,4.60
2023-01-26T04:27:22.081Z,3.92
2023-01-26T04:28:54.940Z,3.85
2023-01-26T04:30:27.671Z,3.97
2023-01-26T04:32:00.392Z,3.67
2023-01-26T04:33:34.415Z,4.30
2023-01-26T04:35:08.314Z,4.00
2023-01-26T04:36:41.325Z,4.22
2023-01-26T04:38:14.010Z,3.75
2023-01-26T04:39:46.690Z,3.50
2023-01-26T04:41:19.504Z,3.65
2023-01-26T04:42:52.193Z,4.30
2023-01-26T04:44:24.877Z,4.10
2023-01-26T04:46:02.008Z,4.20
2023-01-26T04:47:34.798Z,4.47
2023-01-26T04:49:08.036Z,4.30
2023-01-26T04:50:40.718Z,4.00
2023-01-26T04:52:13.662Z,4.32
2023-01-26T04:53:46.620Z,3.83
2023-01-26T04:55:19.634Z,3.50
2023-01-26T04:56:52.442Z,3.45
2023-01-26T04:58:24.381Z,3.83
2023-01-26T04:59:57.084Z,3.45
2023-01-26T05:01:30.599Z,3.95
2023-01-26T05:03:03.285Z,3.90
2023-01-26T05:04:37.551Z,3.85
2023-01-26T05:06:10.538Z,4.10
2023-01-26T05:07:43.219Z,3.80
2023-01-26T05:09:15.917Z,3.50
2023-01-26T05:10:49.480Z,4.10
2023-01-26T05:12:33.352Z,3.75
2023-01-26T05:14:06.041Z,4.22
2023-01-26T05:15:39.006Z,4.55
2023-01-26T05:17:11.701Z,4.38
2023-01-26T05:18:44.944Z,4.18
2023-01-26T05:20:19.307Z,4.20
2023-01-26T05:21:51.979Z,5.13
2023-01-26T05:23:24.739Z,4.80
2023-01-26T05:24:57.410Z,4.50
2023-01-26T05:26:30.357Z,4.75
2023-01-26T05:28:02.260Z,4.70
2023-01-26T05:29:34.940Z,4.75
2023-01-26T05:31:07.673Z,5.00
2023-01-26T05:32:40.437Z,4.85
2023-01-26T05:34:13.135Z,5.03
2023-01-26T05:35:47.159Z,5.03
2023-01-26T05:37:19.855Z,5.95
2023-01-26T05:38:52.548Z,5.50
2023-01-26T05:40:26.042Z,5.38
2023-01-26T05:41:58.730Z,5.38
2023-01-26T05:43:30.727Z,5.97
2023-01-26T05:45:03.566Z,5.65
2023-01-26T05:46:36.255Z,5.10
2023-01-26T05:48:08.961Z,5.18
2023-01-26T05:49:42.899Z,5.35
2023-01-26T05:51:16.908Z,5.90
2023-01-26T05:52:49.894Z,5.88
2023-01-26T05:54:21.642Z,5.72
2023-01-26T05:55:54.344Z,6.07
2023-01-26T05:57:26.113Z,5.85
2023-01-26T05:58:58.795Z,5.68
2023-01-26T06:00:31.593Z,5.78
2023-01-26T06:02:04.684Z,6.30
2023-01-26T06:03:37.405Z,5.88
2023-01-26T06:05:10.681Z,5.43
2023-01-26T06:06:44.831Z,5.43
2023-01-26T06:08:17.509Z,5.88
2023-01-26T06:09:50.221Z,5.88
2023-01-26T06:11:22.910Z,6.18
2023-01-26T06:12:55.637Z,6.72
2023-01-26T06:14:28.406Z,7.88
2023-01-26T06:16:01.894Z,6.07
2023-01-26T06:17:34.599Z,6.50
2023-01-26T06:19:07.614Z,6.82
2023-01-26T06:20:41.853Z,6.53
2023-01-26T06:22:16.883Z,6.38
2023-01-26T06:23:49.644Z,6.80
2023-01-26T06:25:22.358Z,6.43
2023-01-26T06:26:55.274Z,6.18
2023-01-26T06:28:28.563Z,6.00
2023-01-26T06:30:01.234Z,6.78
2023-01-26T06:31:34.087Z,6.30
2023-01-26T06:33:07.462Z,6.47
2023-01-26T06:34:40.414Z,6.68
2023-01-26T06:36:14.787Z,6.28
2023-01-26T06:37:51.346Z,8.48
2023-01-26T06:39:24.153Z,5.97
2023-01-26T06:40:59.869Z,6.00
2023-01-26T06:42:32.544Z,6.47
2023-01-26T06:44:05.328Z,6.32
2023-01-26T06:45:38.122Z,6.25
2023-01-26T06:47:12.221Z,7.00
2023-01-26T06:48:44.912Z,6.50
2023-01-26T06:50:19.860Z,8.30
2023-01-26T06:52:03.197Z,7.35
2023-01-26T06:53:39.970Z,7.85
2023-01-26T06:55:19.567Z,7.80
2023-01-26T06:56:52.256Z,8.25
2023-01-26T06:58:25.004Z,8.10
2023-01-26T06:59:57.899Z,7.68
2023-01-26T07:01:34.427Z,8.20
2023-01-26T07:03:07.145Z,8.23
2023-01-26T07:04:39.830Z,7.13
2023-01-26T07:06:12.534Z,7.10
2023-01-26T07:07:45.226Z,7.72
2023-01-26T07:09:19.223Z,7.78
2023-01-26T07:10:52.076Z,7.90
2023-01-26T07:12:24.945Z,7.80
2023-01-26T07:13:58.130Z,8.38
2023-01-26T07:15:30.861Z,8.27
2023-01-26T07:17:04.051Z,8.13
2023-01-26T07:18:37.095Z,8.68
2023-01-26T07:20:11.396Z,8.63
2023-01-26T07:21:44.303Z,8.02
2023-01-26T07:23:16.980Z,8.13
2023-01-26T07:24:51.028Z,8.57
2023-01-26T07:26:23.877Z,9.02
2023-01-26T07:27:57.340Z,8.52
2023-01-26T07:29:30.665Z,8.73
2023-01-26T07:31:04.891Z,8.40
2023-01-26T07:32:37.586Z,9.23
2023-01-26T07:34:10.547Z,9.50
2023-01-26T07:35:43.356Z,9.35
2023-01-26T07:37:16.087Z,9.05
2023-01-26T07:38:48.805Z,8.45
2023-01-26T07:40:22.821Z,8.93
2023-01-26T07:41:55.501Z,8.25
2023-01-26T07:43:28.181Z,8.88
2023-01-26T07:45:01.335Z,9.27
2023-01-26T07:46:34.052Z,8.88
2023-01-26T07:48:06.907Z,8.80
2023-01-26T07:49:39.592Z,9.18
2023-01-26T07:51:12.756Z,8.55
2023-01-26T07:52:45.426Z,8.57
2023-01-26T07:54:18.113Z,8.45
2023-01-26T07:55:52.124Z,8.27
2023-01-26T07:57:24.800Z,8.73
2023-01-26T07:58:57.809Z,8.38
2023-01-26T08:00:30.620Z,9.77
2023-01-26T08:02:03.372Z,9.48
2023-01-26T08:03:36.225Z,8.77
2023-01-26T08:05:09.894Z,8.93
2023-01-26T08:06:42.593Z,8.30
2023-01-26T08:08:15.320Z,9.05
2023-01-26T08:09:48.015Z,8.95
2023-01-26T08:11:24.205Z,9.60
2023-01-26T08:12:56.873Z,9.98
2023-01-26T08:14:45.097Z,9.95
2023-01-26T08:16:19.348Z,9.32
2023-01-26T08:17:54.441Z,9.68
2023-01-26T08:19:27.288Z,9.57
2023-01-26T08:21:00.451Z,9.43
2023-01-26T08:22:33.160Z,9.05
2023-01-26T08:24:06.425Z,8.88
2023-01-26T08:25:39.175Z,9.40
2023-01-26T08:27:14.635Z,9.32
2023-01-26T08:28:47.844Z,8.90
2023-01-26T08:30:20.875Z,10.05
2023-01-26T08:31:53.731Z,10.43
2023-01-26T08:33:26.499Z,10.15
2023-01-26T08:34:59.177Z,9.73
2023-01-26T08:36:31.872Z,9.45
2023-01-26T08:38:04.888Z,10.35
2023-01-26T08:39:37.552Z,10.10
2023-01-26T08:41:10.896Z,10.52
2023-01-26T08:42:44.948Z,9.98
2023-01-26T08:44:17.629Z,10.70
2023-01-26T08:45:50.397Z,9.95
2023-01-26T08:47:23.229Z,10.90
2023-01-26T08:48:55.931Z,10.48
2023-01-26T08:50:28.658Z,10.35
2023-01-26T08:52:01.365Z,10.73
2023-01-26T08:53:35.467Z,10.18
2023-01-26T08:55:08.732Z,9.88
2023-01-26T08:56:41.424Z,10.07
2023-01-26T08:58:15.442Z,10.23
2023-01-26T08:59:48.127Z,11.07
2023-01-26T09:01:20.857Z,11.02
2023-01-26T09:02:59.569Z,10.65
2023-01-26T09:04:32.388Z,10.45
2023-01-26T09:06:06.757Z,11.07
2023-01-26T09:07:39.821Z,10.85
2023-01-26T09:09:13.214Z,10.10
2023-01-26T09:10:45.960Z,9.93
2023-01-26T09:12:18.654Z,10.63
2023-01-26T09:13:56.569Z,11.57
2023-01-26T09:15:29.411Z,9.82
2023-01-26T09:17:02.089Z,10.20
2023-01-26T09:18:35.214Z,10.05
2023-01-26T09:20:09.781Z,9.68
2023-01-26T09:21:42.608Z,9.93
2023-01-26T09:23:17.824Z,9.45
2023-01-26T09:24:50.529Z,9.30
2023-01-26T09:26:23.220Z,9.88
2023-01-26T09:27:55.912Z,10.85
2023-01-26T09:29:29.936Z,11.27
2023-01-26T09:31:05.700Z,10.93
2023-01-26T09:32:38.721Z,10.18
2023-01-26T09:34:11.400Z,10.10
2023-01-26T09:35:44.198Z,9.70
2023-01-26T09:37:16.918Z,8.93
2023-01-26T09:38:51.014Z,9.32
2023-01-26T09:40:32.124Z,9.85
2023-01-26T09:42:21.224Z,10.48
2023-01-26T09:43:56.491Z,9.45
2023-01-26T09:45:39.528Z,8.98
2023-01-26T09:47:21.440Z,8.95
2023-01-26T09:49:06.015Z,8.85
2023-01-26T09:50:44.451Z,10.65
2023-01-26T09:52:24.151Z,9.75
2023-01-26T09:53:59.314Z,10.27
2023-01-26T09:55:32.057Z,11.45
2023-01-26T09:57:14.494Z,10.85
2023-01-26T09:58:51.672Z,10.02
2023-01-26T10:00:28.948Z,10.23
2023-01-26T10:02:18.754Z,10.73
2023-01-26T10:03:57.316Z,10.77
2023-01-26T10:05:51.532Z,10.30
2023-01-26T10:07:24.274Z,11.25
2023-01-26T10:08:58.855Z,10.93
2023-01-26T10:10:36.105Z,12.02
2023-01-26T10:12:15.966Z,11.40
2023-01-26T10:13:54.691Z,10.90
2023-01-26T10:15:32.660Z,11.75
2023-01-26T10:17:08.364Z,11.95
2023-01-26T10:18:51.064Z,11.13
2023-01-26T10:20:29.630Z,10.85
2023-01-26T10:22:09.416Z,11.25
2023-01-26T10:23:48.306Z,11.68
2023-01-26T10:25:28.747Z,12.15
2023-01-26T10:27:01.551Z,10.75
2023-01-26T10:28:36.536Z,11.02
2023-01-26T10:30:14.729Z,11.98
2023-01-26T10:31:47.629Z,11.65
2023-01-26T10:33:26.109Z,10.85
2023-01-26T10:34:59.906Z,10.88
2023-01-26T10:36:33.611Z,10.13
2023-01-26T10:38:44.171Z,10.00
2023-01-26T10:40:18.285Z,10.73
2023-01-26T10:41:59.214Z,10.10
2023-01-26T10:43:35.883Z,10.32
2023-01-26T10:45:26.219Z,10.10
2023-01-26T10:47:08.078Z,10.50
2023-01-26T10:48:52.957Z,11.35
2023-01-26T10:50:26.763Z,10.85
2023-01-26T10:52:17.283Z,11.63
2023-01-26T10:53:50.151Z,10.93
2023-01-26T10:55:22.993Z,12.07
2023-01-26T10:56:58.136Z,12.27
2023-01-26T10:58:44.799Z,11.75
2023-01-26T11:00:25.432Z,11.82
2023-01-26T11:02:01.138Z,11.77
2023-01-26T11:03:33.869Z,12.05
2023-01-26T11:05:29.043Z,12.30
2023-01-26T11:07:26.352Z,12.77
2023-01-26T11:09:11.246Z,12.88
2023-01-26T11:10:53.251Z,12.82
2023-01-26T11:12:26.601Z,13.52
2023-01-26T11:14:13.756Z,12.48
2023-01-26T11:15:48.626Z,14.15
2023-01-26T11:17:25.190Z,13.57
2023-01-26T11:19:01.089Z,14.88
2023-01-26T11:20:48.576Z,14.98
2023-01-26T11:22:29.827Z,14.38
2023-01-26T11:24:06.102Z,19.30
2023-01-26T11:25:46.673Z,15.05
2023-01-26T11:27:29.987Z,14.80
2023-01-26T11:29:19.213Z,17.38
2023-01-26T11:31:13.337Z,18.35
2023-01-26T11:32:56.216Z,18.90
2023-01-26T11:34:36.657Z,13.98
2023-01-26T11:36:20.518Z,15.57
2023-01-26T11:38:02.228Z,14.57
2023-01-26T11:39:43.145Z,13.40
2023-01-26T11:41:28.879Z,13.27
2023-01-26T11:43:24.538Z,13.88
2023-01-26T11:45:18.291Z,13.18
2023-01-26T11:47:06.187Z,14.07
2023-01-26T11:48:49.797Z,14.43
2023-01-26T11:50:31.456Z,14.35
2023-01-26T11:52:14.415Z,12.68
2023-01-26T11:54:08.021Z,12.20
2023-01-26T11:55:56.346Z,12.75
2023-01-26T11:57:38.959Z,12.60
2023-01-26T11:59:16.378Z,13.68
2023-01-26T12:00:52.430Z,12.93
2023-01-26T12:02:30.744Z,12.73
2023-01-26T12:04:03.487Z,13.20
2023-01-26T12:05:42.797Z,13.75
2023-01-26T12:07:21.682Z,12.25
2023-01-26T12:08:59.196Z,15.05
2023-01-26T12:10:37.517Z,13.27
2023-01-26T12:12:15.424Z,12.23
2023-01-26T12:13:53.264Z,12.40
2023-01-26T12:15:30.426Z,12.10
2023-01-26T12:17:37.050Z,12.55
2023-01-26T12:19:29.712Z,12.38
2023-01-26T12:21:06.778Z,11.75
2023-01-26T12:22:47.434Z,10.75
2023-01-26T12:25:04.812Z,10.40
2023-01-26T12:26:33.684Z,12.30
2023-01-26T12:28:16.515Z,11.55
2023-01-26T12:29:53.758Z,11.88
2023-01-26T12:31:33.038Z,11.65
2023-01-26T12:33:06.198Z,11.70
2023-01-26T12:34:39.005Z,11.07
2023-01-26T12:36:37.197Z,11.32
2023-01-26T12:38:18.371Z,10.90
2023-01-26T12:40:02.293Z,11.88
2023-01-26T12:41:46.000Z,11.68
2023-01-26T12:43:29.140Z,11.45
2023-01-26T12:45:02.750Z,9.10
2023-01-26T12:46:40.309Z,10.30
2023-01-26T12:48:17.369Z,10.25
2023-01-26T12:49:57.191Z,8.82
2023-01-26T12:51:33.625Z,8.75
2023-01-26T12:53:12.311Z,9.07
2023-01-26T12:54:50.663Z,9.13
2023-01-26T12:56:27.383Z,8.50
2023-01-26T12:58:03.144Z,8.00
2023-01-26T12:59:48.206Z,7.90
2023-01-26T13:01:23.696Z,7.72
2023-01-26T13:03:00.304Z,7.43
2023-01-26T13:04:33.037Z,7.07
2023-01-26T13:06:20.444Z,7.97
2023-01-26T13:07:53.148Z,8.02
2023-01-26T13:09:27.094Z,8.32
2023-01-26T13:11:04.549Z,8.65
2023-01-26T13:12:48.135Z,7.90
2023-01-26T13:14:56.665Z,8.07
2023-01-26T13:16:33.890Z,8.13
2023-01-26T13:18:06.596Z,7.28
2023-01-26T13:19:53.340Z,7.22
2023-01-26T13:21:29.280Z,7.88
2023-01-26T13:23:02.025Z,8.65
2023-01-26T13:24:46.749Z,8.40
2023-01-26T13:26:26.282Z,8.48
2023-01-26T13:28:00.978Z,8.25
2023-01-26T13:29:35.423Z,8.55
2023-01-26T13:31:10.050Z,8.68
2023-01-26T13:32:54.258Z,9.30
2023-01-26T13:34:30.191Z,8.40
2023-01-26T13:36:06.903Z,8.32
2023-01-26T13:37:49.154Z,8.40
2023-01-26T13:39:28.799Z,8.52
2023-01-26T13:41:03.777Z,8.88
2023-01-26T13:42:48.484Z,8.93
2023-01-26T13:44:24.519Z,8.60
2023-01-26T13:46:03.899Z,8.60
2023-01-26T13:47:41.781Z,8.20
2023-01-26T13:49:25.831Z,8.48
2023-01-26T13:51:02.057Z,8.95
2023-01-26T13:52:34.759Z,8.52
2023-01-26T13:54:11.888Z,8.50
2023-01-26T13:55:44.741Z,8.80
2023-01-26T13:57:23.217Z,8.32
2023-01-26T13:59:09.078Z,8.75
2023-01-26T14:00:41.888Z,8.48
2023-01-26T14:02:23.763Z,8.35
2023-01-26T14:04:04.189Z,7.75
2023-01-26T14:05:37.078Z,8.55
2023-01-26T14:07:15.528Z,8.27
2023-01-26T14:08:53.416Z,8.23
2023-01-26T14:10:26.960Z,8.57
2023-01-26T14:12:02.488Z,8.45
2023-01-26T14:13:37.957Z,8.85
2023-01-26T14:15:23.252Z,8.40
2023-01-26T14:16:58.544Z,8.85
2023-01-26T14:18:31.664Z,8.75
2023-01-26T14:20:19.733Z,8.93
2023-01-26T14:21:53.921Z,9.52
2023-01-26T14:23:29.091Z,9.00
2023-01-26T14:25:01.796Z,8.90
2023-01-26T14:26:34.945Z,9.05
2023-01-26T14:28:13.748Z,9.43
2023-01-26T14:29:47.584Z,10.35
2023-01-26T14:31:24.059Z,10.65
2023-01-26T14:33:03.849Z,11.07
2023-01-26T14:34:36.577Z,12.35
2023-01-26T14:36:16.839Z,10.93
2023-01-26T14:37:49.752Z,9.93
2023-01-26T14:39:22.532Z,10.63
2023-01-26T14:40:56.854Z,10.50
2023-01-26T14:42:29.693Z,10.60
2023-01-26T14:44:04.897Z,11.60
2023-01-26T14:45:40.249Z,10.68
2023-01-26T14:47:21.551Z,10.13
2023-01-26T14:48:58.551Z,9.73
2023-01-26T14:50:32.260Z,9.80
2023-01-26T14:52:05.226Z,9.23
2023-01-26T14:53:38.367Z,8.82
2023-01-26T14:55:18.912Z,9.70
2023-01-26T14:56:51.732Z,9.75
2023-01-26T14:58:30.593Z,10.50
2023-01-26T15:00:08.803Z,10.43
2023-01-26T15:01:41.694Z,9.95
2023-01-26T15:03:23.277Z,11.00
2023-01-26T15:04:59.636Z,10.00
2023-01-26T15:06:32.958Z,11.63
2023-01-26T15:08:07.778Z,10.65
2023-01-26T15:09:40.453Z,10.75
2023-01-26T15:11:36.392Z,10.45
2023-01-26T15:13:21.471Z,9.80
2023-01-26T15:14:58.120Z,10.25
2023-01-26T15:16:30.835Z,10.30
2023-01-26T15:18:20.927Z,10.38
2023-01-26T15:19:53.807Z,9.48
2023-01-26T15:21:33.647Z,10.30
2023-01-26T15:23:22.635Z,9.82
2023-01-26T15:25:06.560Z,10.25
2023-01-26T15:26:39.362Z,9.82
2023-01-26T15:28:19.253Z,10.23
2023-01-26T15:29:59.042Z,10.60
2023-01-26T15:31:35.191Z,10.02
2023-01-26T15:33:34.560Z,9.70
2023-01-26T15:35:20.890Z,9.70
2023-01-26T15:36:53.641Z,11.18
2023-01-26T15:38:26.330Z,11.00
2023-01-26T15:39:59.075Z,11.55
2023-01-26T15:41:31.891Z,10.70
2023-01-26T15:43:12.724Z,10.25
2023-01-26T15:44:45.497Z,10.15
2023-01-26T15:46:18.328Z,10.65
2023-01-26T15:47:51.314Z,10.88
2023-01-26T15:49:24.131Z,10.43
2023-01-26T15:50:58.421Z,10.65
2023-01-26T15:52:31.246Z,10.27
2023-01-26T15:54:04.099Z,9.90
2023-01-26T15:55:37.471Z,10.80
2023-01-26T15:57:11.211Z,10.73
2023-01-26T15:58:44.322Z,10.95
2023-01-26T16:00:18.313Z,10.65
2023-01-26T16:01:51.078Z,11.65
2023-01-26T16:03:23.807Z,11.43
2023-01-26T16:04:56.561Z,11.30
2023-01-26T16:06:33.214Z,11.63
2023-01-26T16:08:06.213Z,11.30
2023-01-26T16:09:38.980Z,12.27
2023-01-26T16:11:13.487Z,11.88
2023-01-26T16:12:46.712Z,11.55
2023-01-26T16:14:20.156Z,11.73
2023-01-26T16:15:54.305Z,10.95
2023-01-26T16:17:27.165Z,11.25
2023-01-26T16:19:00.090Z,11.77
2023-01-26T16:20:32.871Z,13.15
2023-01-26T16:22:07.022Z,12.13
2023-01-26T16:23:39.743Z,12.10
2023-01-26T16:25:22.201Z,12.93
2023-01-26T16:26:54.914Z,11.68
2023-01-26T16:28:27.596Z,12.23
2023-01-26T16:30:00.281Z,12.13
2023-01-26T16:31:34.561Z,12.98
2023-01-26T16:33:07.282Z,13.80
2023-01-26T16:34:39.965Z,14.30
2023-01-26T16:36:14.709Z,13.45
2023-01-26T16:37:49.151Z,13.88
2023-01-26T16:39:21.853Z,13.27
2023-01-26T16:40:55.125Z,13.98
2023-01-26T16:42:27.957Z,13.13
2023-01-26T16:44:02.666Z,13.82
2023-01-26T16:45:35.357Z,12.85
2023-01-26T16:47:11.065Z,14.93
2023-01-26T16:48:43.797Z,14.98
2023-01-26T16:50:17.132Z,13.43
2023-01-26T16:51:49.837Z,15.07
2023-01-26T16:53:27.305Z,14.77
2023-01-26T16:54:59.993Z,14.02
2023-01-26T16:56:33.152Z,13.38
2023-01-26T16:58:05.820Z,14.32
2023-01-26T16:59:38.833Z,13.50
2023-01-26T17:01:19.299Z,13.73
2023-01-26T17:02:53.544Z,14.32
2023-01-26T17:04:26.268Z,14.13
2023-01-26T17:05:59.211Z,13.75
2023-01-26T17:07:31.892Z,13.77
2023-01-26T17:09:05.948Z,13.45
2023-01-26T17:10:51.915Z,14.65
2023-01-26T17:12:32.876Z,14.27
2023-01-26T17:14:05.679Z,26.17
2023-01-26T17:15:38.439Z,18.20
2023-01-26T17:17:11.317Z,14.88
2023-01-26T17:18:45.026Z,15.88
2023-01-26T17:20:19.645Z,20.50
2023-01-26T17:21:52.793Z,17.40
2023-01-26T17:23:25.472Z,13.98
2023-01-26T17:24:59.711Z,16.83
2023-01-26T17:26:32.410Z,17.92
2023-01-26T17:28:05.198Z,25.75
2023-01-26T17:29:39.608Z,16.10
2023-01-26T17:31:14.042Z,13.50
2023-01-26T17:32:46.909Z,13.45
2023-01-26T17:34:21.086Z,13.30
2023-01-26T17:36:00.585Z,24.33
2023-01-26T17:37:33.287Z,15.50
2023-01-26T17:39:05.965Z,15.48
2023-01-26T17:40:39.977Z,20.90
2023-01-26T17:42:12.899Z,16.33
2023-01-26T17:43:46.102Z,19.35
2023-01-26T17:45:18.911Z,27.55
2023-01-26T17:46:51.595Z,19.60
2023-01-26T17:48:24.353Z,19.60
2023-01-26T17:49:57.025Z,15.88
2023-01-26T17:51:29.689Z,14.85
2023-01-26T17:53:02.398Z,13.20
2023-01-26T17:54:35.325Z,14.75
2023-01-26T17:56:11.157Z,14.20
2023-01-26T17:57:43.930Z,14.07
2023-01-26T17:59:16.672Z,13.48
2023-01-26T18:00:49.402Z,13.57
2023-01-26T18:02:22.154Z,14.27
2023-01-26T18:03:54.895Z,14.52
2023-01-26T18:05:28.063Z,14.45
2023-01-26T18:07:02.050Z,14.20
2023-01-26T18:08:34.900Z,14.70
2023-01-26T18:10:09.284Z,15.40
2023-01-26T18:11:43.291Z,15.52
2023-01-26T18:13:16.586Z,15.93
2023-01-26T18:14:49.492Z,16.42
2023-01-26T18:16:22.949Z,15.40
2023-01-26T18:17:55.625Z,15.60
2023-01-26T18:19:28.426Z,15.40
2023-01-26T18:21:12.161Z,14.98
2023-01-26T18:22:44.879Z,15.35
2023-01-26T18:24:17.682Z,16.05
2023-01-26T18:25:51.092Z,15.60
2023-01-26T18:27:25.412Z,15.80
2023-01-26T18:28:58.561Z,14.93
2023-01-26T18:30:31.413Z,14.60
2023-01-26T18:32:04.508Z,15.55
2023-01-26T18:33:37.329Z,16.42
2023-01-26T18:35:10.970Z,15.40
2023-01-26T18:36:43.868Z,16.17
2023-01-26T18:38:16.584Z,15.60
2023-01-26T18:39:49.462Z,14.85
2023-01-26T18:41:23.738Z,14.82
2023-01-26T18:42:58.122Z,14.93
2023-01-26T18:44:31.289Z,17.60
2023-01-26T18:46:04.864Z,15.20
2023-01-26T18:47:37.663Z,15.55
2023-01-26T18:49:11.417Z,14.40
2023-01-26T18:50:48.663Z,14.80
2023-01-26T18:52:21.391Z,14.82
2023-01-26T18:53:54.131Z,14.60
2023-01-26T18:55:26.941Z,14.82
2023-01-26T18:56:59.675Z,14.07
2023-01-26T18:58:34.199Z,14.85
2023-01-26T19:00:09.100Z,15.25
2023-01-26T19:01:43.588Z,15.23
2023-01-26T19:03:18.040Z,15.05
2023-01-26T19:04:53.495Z,15.13
2023-01-26T19:06:28.252Z,14.52
2023-01-26T19:08:09.855Z,16.00
2023-01-26T19:09:42.533Z,16.58
2023-01-26T19:11:15.459Z,18.10
2023-01-26T19:12:50.222Z,15.63
2023-01-26T19:14:24.271Z,16.17
2023-01-26T19:15:56.945Z,17.30
2023-01-26T19:17:29.675Z,18.10
2023-01-26T19:19:02.416Z,20.05
2023-01-26T19:20:35.124Z,17.85
2023-01-26T19:22:07.795Z,16.40
2023-01-26T19:23:42.525Z,17.50
2023-01-26T19:25:15.327Z,16.88
2023-01-26T19:26:48.189Z,17.65
2023-01-26T19:28:21.152Z,17.40
2023-01-26T19:29:55.300Z,17.88
2023-01-26T19:31:28.858Z,16.42
2023-01-26T19:33:19.101Z,17.15
2023-01-26T19:34:51.773Z,17.90
2023-01-26T19:36:24.811Z,17.83
2023-01-26T19:37:57.543Z,17.27
2023-01-26T19:39:31.057Z,19.95
2023-01-26T19:41:03.780Z,16.73
2023-01-26T19:42:36.479Z,19.17
2023-01-26T19:44:09.361Z,19.75
2023-01-26T19:45:48.643Z,20.70
2023-01-26T19:47:21.348Z,21.08
2023-01-26T19:48:54.085Z,16.58
2023-01-26T19:50:26.967Z,16.23
2023-01-26T19:51:59.705Z,15.52
2023-01-26T19:53:33.031Z,16.50
2023-01-26T19:55:06.297Z,16.95
2023-01-26T19:56:39.243Z,16.10
2023-01-26T19:58:11.937Z,15.68
2023-01-26T19:59:44.623Z,16.08
2023-01-26T20:01:18.782Z,16.60
2023-01-26T20:02:51.508Z,15.52
2023-01-26T20:04:24.177Z,16.77
2023-01-26T20:05:57.323Z,16.17
2023-01-26T20:07:30.062Z,15.63
2023-01-26T20:09:04.348Z,16.70
2023-01-26T20:10:37.044Z,17.05
2023-01-26T20:12:11.059Z,17.08
2023-01-26T20:13:43.782Z,17.65
2023-01-26T20:15:16.587Z,17.77
2023-01-26T20:16:50.678Z,19.45
2023-01-26T20:18:23.423Z,20.05
2023-01-26T20:19:56.105Z,18.63
2023-01-26T20:21:29.970Z,18.40
2023-01-26T20:23:02.664Z,18.02
2023-01-26T20:24:35.506Z,18.17
2023-01-26T20:26:10.105Z,20.95
2023-01-26T20:27:43.095Z,19.23
2023-01-26T20:29:17.920Z,18.17
2023-01-26T20:30:50.609Z,17.58
2023-01-26T20:32:24.752Z,20.38
2023-01-26T20:33:58.333Z,28.25
2023-01-26T20:35:31.480Z,19.92
2023-01-26T20:37:04.619Z,19.15
2023-01-26T20:38:37.870Z,17.58
2023-01-26T20:40:12.628Z,19.60
2023-01-26T20:41:45.481Z,19.63
2023-01-26T20:43:18.163Z,19.92
2023-01-26T20:44:50.879Z,25.90
2023-01-26T20:46:23.599Z,18.77
2023-01-26T20:47:58.126Z,18.00
2023-01-26T20:49:30.836Z,18.23
2023-01-26T20:51:10.939Z,18.70
2023-01-26T20:52:44.421Z,19.10